Zhytomyr, Ukraine
Current Conditions -  °F | °C
As of 5:00 AM on Saturday 22 Nov 2014 (Local Time) from UKKM Reporting Station
Clear Clear  
Wind Chill: 19°   Ceiling: Unl
Heat Index: 25°   Visibility: 6mi
Dew Point: 16°   Wind: 4mph
Humidity: 69%   Direction: 40°NE
Pressure: 30.33"   Gusts: NA
Location:  50.25°N, 28.67°E
Report Text: UKKM 220200Z AUTO 04002MPS 9999 NCD M04/M09 Q1027
Loading
Personal Weather Stations






























Interactive Weather Map New forecast layout! Learn more

10-Day Weather Forecast

Advertisements
Track Severe Weather on mobile